sensor_id;sensor_type;location;lat;lon;timestamp;pressure;altitude;pressure_sealevel;temperature;humidity
44734;BME280;30462;52.446;-1.930;2022-12-08T00:00:18;100197.3555;;;;
44734;BME280;30462;52.446;-1.930;2022-12-08T00:01:19;100198.7031;;;;
44734;BME280;30462;52.446;-1.930;2022-12-08T00:02:18;100195.7227;;;;
44734;BME280;30462;52.446;-1.930;2022-12-08T00:03:18;100200.2461;;;;
44734;BME280;30462;52.446;-1.930;2022-12-08T00:04:18;100195.7773;;;;
44734;BME280;30462;52.446;-1.930;2022-12-08T00:05:18;100195.7344;;;;
44734;BME280;30462;52.446;-1.930;2022-12-08T00:06:23;100191.9922;;;;
44734;BME280;30462;52.446;-1.930;2022-12-08T00:07:18;100192.2344;;;;
44734;BME280;30462;52.446;-1.930;2022-12-08T00:08:18;100188.7305;;;;
44734;BME280;30462;52.446;-1.930;2022-12-08T00:09:21;100185.2695;;;;
44734;BME280;30462;52.446;-1.930;2022-12-08T00:10:18;100186.9297;;;;
44734;BME280;30462;52.446;-1.930;2022-12-08T00:11:18;100184.7188;;;;
44734;BME280;30462;52.446;-1.930;2022-12-08T00:12:17;100179.8125;;;;
44734;BME280;30462;52.446;-1.930;2022-12-08T00:13:18;100178.4336;;;;
44734;BME280;30462;52.446;-1.930;2022-12-08T00:14:18;100179.0781;;;;
44734;BME280;30462;52.446;-1.930;2022-12-08T00:15:18;100176.3086;;;;
44734;BME280;30462;52.446;-1.930;2022-12-08T00:16:18;100176.2539;;;;
44734;BME280;30462;52.446;-1.930;2022-12-08T00:17:18;100177.4922;;;;
44734;BME280;30462;52.446;-1.930;2022-12-08T00:18:18;100174.7617;;;;
44734;BME280;30462;52.446;-1.930;2022-12-08T00:19:18;100175.9297;;;;
44734;BME280;30462;52.446;-1.930;2022-12-08T00:20:18;100179.8789;;;;
44734;BME280;30462;52.446;-1.930;2022-12-08T00:21:18;100179.3047;;;;
44734;BME280;30462;52.446;-1.930;2022-12-08T00:22:18;100177.8125;;;;
44734;BME280;30462;52.446;-1.930;2022-12-08T00:23:18;100176;;;;
44734;BME280;30462;52.446;-1.930;2022-12-08T00:24:18;100176.4414;;;;
44734;BME280;30462;52.446;-1.930;2022-12-08T00:25:18;100177.4883;;;;
44734;BME280;30462;52.446;-1.930;2022-12-08T00:26:18;100176.4844;;;;
44734;BME280;30462;52.446;-1.930;2022-12-08T00:27:18;100176.4453;;;;
44734;BME280;30462;52.446;-1.930;2022-12-08T00:28:18;100174.5547;;;;
44734;BME280;30462;52.446;-1.930;2022-12-08T00:29:18;100173.582;;;;
44734;BME280;30462;52.446;-1.930;2022-12-08T00:30:18;100170.1602;;;;
44734;BME280;30462;52.446;-1.930;2022-12-08T00:31:18;100169.2031;;;;
44734;BME280;30462;52.446;-1.930;2022-12-08T00:32:18;100169.2734;;;;
44734;BME280;30462;52.446;-1.930;2022-12-08T00:33:18;100167.3828;;;;
44734;BME280;30462;52.446;-1.930;2022-12-08T00:34:19;100165.4063;;;;
44734;BME280;30462;52.446;-1.930;2022-12-08T00:35:18;100163.5508;;;;
44734;BME280;30462;52.446;-1.930;2022-12-08T00:36:18;100158.5508;;;;
44734;BME280;30462;52.446;-1.930;2022-12-08T00:37:18;100160.4414;;;;
44734;BME280;30462;52.446;-1.930;2022-12-08T00:38:17;100161.5352;;;;
44734;BME280;30462;52.446;-1.930;2022-12-08T00:39:18;100157.5469;;;;
44734;BME280;30462;52.446;-1.930;2022-12-08T00:40:18;100157.3945;;;;
44734;BME280;30462;52.446;-1.930;2022-12-08T00:41:19;100155.9102;;;;
44734;BME280;30462;52.446;-1.930;2022-12-08T00:42:18;100148.9492;;;;
44734;BME280;30462;52.446;-1.930;2022-12-08T00:43:18;100151.2734;;;;
44734;BME280;30462;52.446;-1.930;2022-12-08T00:44:18;100150.7617;;;;
44734;BME280;30462;52.446;-1.930;2022-12-08T00:45:18;100150.7539;;;;
44734;BME280;30462;52.446;-1.930;2022-12-08T00:46:18;100151.7305;;;;
44734;BME280;30462;52.446;-1.930;2022-12-08T00:47:18;100154.0391;;;;
44734;BME280;30462;52.446;-1.930;2022-12-08T00:48:18;100150.3633;;;;
44734;BME280;30462;52.446;-1.930;2022-12-08T00:49:18;100148.3203;;;;
44734;BME280;30462;52.446;-1.930;2022-12-08T00:50:18;100145.2734;;;;
44734;BME280;30462;52.446;-1.930;2022-12-08T00:51:18;100145.1016;;;;
44734;BME280;30462;52.446;-1.930;2022-12-08T00:52:18;100145.7852;;;;
44734;BME280;30462;52.446;-1.930;2022-12-08T00:53:18;100145.1914;;;;
44734;BME280;30462;52.446;-1.930;2022-12-08T00:54:18;100146.4688;;;;
44734;BME280;30462;52.446;-1.930;2022-12-08T00:55:18;100145.5117;;;;
44734;BME280;30462;52.446;-1.930;2022-12-08T00:56:18;100140.8828;;;;
44734;BME280;30462;52.446;-1.930;2022-12-08T00:57:17;100140.8008;;;;
44734;BME280;30462;52.446;-1.930;2022-12-08T00:58:18;100142.6172;;;;
44734;BME280;30462;52.446;-1.930;2022-12-08T00:59:18;100141.2031;;;;
44734;BME280;30462;52.446;-1.930;2022-12-08T01:00:18;100136.1719;;;;
44734;BME280;30462;52.446;-1.930;2022-12-08T01:01:18;100140.7617;;;;
44734;BME280;30462;52.446;-1.930;2022-12-08T01:02:18;100139.6641;;;;
44734;BME280;30462;52.446;-1.930;2022-12-08T01:03:18;100136.6406;;;;
44734;BME280;30462;52.446;-1.930;2022-12-08T01:04:18;100135.5469;;;;
44734;BME280;30462;52.446;-1.930;2022-12-08T01:05:18;100133.375;;;;
44734;BME280;30462;52.446;-1.930;2022-12-08T01:06:18;100129.2617;;;;
44734;BME280;30462;52.446;-1.930;2022-12-08T01:07:18;100127.8945;;;;
44734;BME280;30462;52.446;-1.930;2022-12-08T01:08:18;100126.5234;;;;
44734;BME280;30462;52.446;-1.930;2022-12-08T01:09:18;100124.8711;;;;
44734;BME280;30462;52.446;-1.930;2022-12-08T01:10:18;100123.0195;;;;
44734;BME280;30462;52.446;-1.930;2022-12-08T01:11:18;100116.9375;;;;
44734;BME280;30462;52.446;-1.930;2022-12-08T01:12:18;100115.4883;;;;
44734;BME280;30462;52.446;-1.930;2022-12-08T01:13:18;100115.625;;;;
44734;BME280;30462;52.446;-1.930;2022-12-08T01:14:18;100114.2891;;;;
44734;BME280;30462;52.446;-1.930;2022-12-08T01:15:17;100116.6211;;;;
44734;BME280;30462;52.446;-1.930;2022-12-08T01:16:18;100115.8555;;;;
44734;BME280;30462;52.446;-1.930;2022-12-08T01:17:19;100114.9258;;;;
44734;BME280;30462;52.446;-1.930;2022-12-08T01:18:17;100115.3438;;;;
44734;BME280;30462;52.446;-1.930;2022-12-08T01:19:18;100112;;;;
44734;BME280;30462;52.446;-1.930;2022-12-08T01:20:18;100111.6484;;;;
44734;BME280;30462;52.446;-1.930;2022-12-08T01:21:18;100109.5859;;;;
44734;BME280;30462;52.446;-1.930;2022-12-08T01:22:17;100109.5859;;;;
44734;BME280;30462;52.446;-1.930;2022-12-08T01:23:18;100110.7109;;;;
44734;BME280;30462;52.446;-1.930;2022-12-08T01:24:19;100110.3477;;;;
44734;BME280;30462;52.446;-1.930;2022-12-08T01:25:18;100108.8945;;;;
44734;BME280;30462;52.446;-1.930;2022-12-08T01:26:18;100101.9805;;;;
44734;BME280;30462;52.446;-1.930;2022-12-08T01:27:18;100101.7813;;;;
44734;BME280;30462;52.446;-1.930;2022-12-08T01:28:18;100100.9492;;;;
44734;BME280;30462;52.446;-1.930;2022-12-08T01:29:18;100100.707;;;;
44734;BME280;30462;52.446;-1.930;2022-12-08T01:30:18;100098.8555;;;;
44734;BME280;30462;52.446;-1.930;2022-12-08T01:31:18;100101.4375;;;;
44734;BME280;30462;52.446;-1.930;2022-12-08T01:32:18;100101.6367;;;;
44734;BME280;30462;52.446;-1.930;2022-12-08T01:33:18;100099.5469;;;;
44734;BME280;30462;52.446;-1.930;2022-12-08T01:34:18;100100.5586;;;;
44734;BME280;30462;52.446;-1.930;2022-12-08T01:35:17;100096.4531;;;;
44734;BME280;30462;52.446;-1.930;2022-12-08T01:36:20;100099.4727;;;;
44734;BME280;30462;52.446;-1.930;2022-12-08T01:37:18;100094.332;;;;
44734;BME280;30462;52.446;-1.930;2022-12-08T01:38:17;100096.4961;;;;
44734;BME280;30462;52.446;-1.930;2022-12-08T01:39:18;100096.832;;;;
44734;BME280;30462;52.446;-1.930;2022-12-08T01:40:18;100094.8125;;;;
44734;BME280;30462;52.446;-1.930;2022-12-08T01:41:20;100093.7188;;;;
44734;BME280;30462;52.446;-1.930;2022-12-08T01:42:19;100092.5859;;;;
44734;BME280;30462;52.446;-1.930;2022-12-08T01:43:18;100092.3008;;;;
44734;BME280;30462;52.446;-1.930;2022-12-08T01:45:20;100085.9922;;;;
44734;BME280;30462;52.446;-1.930;2022-12-08T01:46:17;100088.4063;;;;
44734;BME280;30462;52.446;-1.930;2022-12-08T01:47:19;100084.5703;;;;
44734;BME280;30462;52.446;-1.930;2022-12-08T01:48:19;100085.6836;;;;
44734;BME280;30462;52.446;-1.930;2022-12-08T01:49:19;100089.0586;;;;
44734;BME280;30462;52.446;-1.930;2022-12-08T01:50:17;100081.2461;;;;
44734;BME280;30462;52.446;-1.930;2022-12-08T01:51:18;100083.7383;;;;
44734;BME280;30462;52.446;-1.930;2022-12-08T01:52:20;100081.6406;;;;
44734;BME280;30462;52.446;-1.930;2022-12-08T01:53:18;100078.8984;;;;
44734;BME280;30462;52.446;-1.930;2022-12-08T01:54:17;100079.2148;;;;
44734;BME280;30462;52.446;-1.930;2022-12-08T01:55:23;100082.6016;;;;
44734;BME280;30462;52.446;-1.930;2022-12-08T01:56:19;100085.1953;;;;
44734;BME280;30462;52.446;-1.930;2022-12-08T01:57:19;100085.6641;;;;
44734;BME280;30462;52.446;-1.930;2022-12-08T01:58:21;100083.0039;;;;
44734;BME280;30462;52.446;-1.930;2022-12-08T01:59:18;100085.2813;;;;
44734;BME280;30462;52.446;-1.930;2022-12-08T02:00:19;100087.6563;;;;
44734;BME280;30462;52.446;-1.930;2022-12-08T02:01:18;100082.4961;;;;
44734;BME280;30462;52.446;-1.930;2022-12-08T02:02:18;100085.3945;;;;
44734;BME280;30462;52.446;-1.930;2022-12-08T02:03:19;100082.7813;;;;
44734;BME280;30462;52.446;-1.930;2022-12-08T02:04:18;100086.5625;;;;
44734;BME280;30462;52.446;-1.930;2022-12-08T02:05:18;100085.5469;;;;
44734;BME280;30462;52.446;-1.930;2022-12-08T02:06:18;100086.1875;;;;
44734;BME280;30462;52.446;-1.930;2022-12-08T02:07:18;100085.7461;;;;
44734;BME280;30462;52.446;-1.930;2022-12-08T02:08:18;100088.6016;;;;
44734;BME280;30462;52.446;-1.930;2022-12-08T02:09:18;100086.0117;;;;
44734;BME280;30462;52.446;-1.930;2022-12-08T02:10:19;100087.0156;;;;
44734;BME280;30462;52.446;-1.930;2022-12-08T02:11:18;100084.9922;;;;
44734;BME280;30462;52.446;-1.930;2022-12-08T02:12:18;100081.1875;;;;
44734;BME280;30462;52.446;-1.930;2022-12-08T02:13:18;100083.5859;;;;
44734;BME280;30462;52.446;-1.930;2022-12-08T02:14:18;100083.6211;;;;
44734;BME280;30462;52.446;-1.930;2022-12-08T02:15:19;100079.707;;;;
44734;BME280;30462;52.446;-1.930;2022-12-08T02:16:23;100082.0391;;;;
44734;BME280;30462;52.446;-1.930;2022-12-08T02:17:24;100084.4961;;;;
44734;BME280;30462;52.446;-1.930;2022-12-08T02:18:22;100079.9805;;;;
44734;BME280;30462;52.446;-1.930;2022-12-08T02:21:21;100080.5664;;;;
44734;BME280;30462;52.446;-1.930;2022-12-08T02:22:19;100080.1641;;;;
44734;BME280;30462;52.446;-1.930;2022-12-08T02:23:22;100081.1367;;;;
44734;BME280;30462;52.446;-1.930;2022-12-08T02:24:22;100078.7188;;;;
44734;BME280;30462;52.446;-1.930;2022-12-08T02:25:24;100077.5781;;;;
44734;BME280;30462;52.446;-1.930;2022-12-08T02:30:19;100072.5938;;;;
44734;BME280;30462;52.446;-1.930;2022-12-08T02:31:22;100070.7344;;;;
44734;BME280;30462;52.446;-1.930;2022-12-08T02:32:25;100069.7344;;;;
44734;BME280;30462;52.446;-1.930;2022-12-08T02:34:19;100065.375;;;;
44734;BME280;30462;52.446;-1.930;2022-12-08T02:35:21;100063.7578;;;;
44734;BME280;30462;52.446;-1.930;2022-12-08T02:36:19;100065.9609;;;;
44734;BME280;30462;52.446;-1.930;2022-12-08T02:37:20;100060.6406;;;;
44734;BME280;30462;52.446;-1.930;2022-12-08T02:38:19;100059.2461;;;;
44734;BME280;30462;52.446;-1.930;2022-12-08T02:39:22;100061.2188;;;;
44734;BME280;30462;52.446;-1.930;2022-12-08T02:40:20;100057.3125;;;;
44734;BME280;30462;52.446;-1.930;2022-12-08T02:41:23;100053.0781;;;;
44734;BME280;30462;52.446;-1.930;2022-12-08T02:42:21;100054.8047;;;;
44734;BME280;30462;52.446;-1.930;2022-12-08T02:43:20;100057.2188;;;;
44734;BME280;30462;52.446;-1.930;2022-12-08T02:44:21;100053.8906;;;;
44734;BME280;30462;52.446;-1.930;2022-12-08T02:45:21;100053.3633;;;;
44734;BME280;30462;52.446;-1.930;2022-12-08T02:46:20;100051.1055;;;;
44734;BME280;30462;52.446;-1.930;2022-12-08T02:47:18;100047.3242;;;;
44734;BME280;30462;52.446;-1.930;2022-12-08T02:48:18;100053.4258;;;;
44734;BME280;30462;52.446;-1.930;2022-12-08T02:49:18;100050.4688;;;;
44734;BME280;30462;52.446;-1.930;2022-12-08T02:50:18;100049.4336;;;;
44734;BME280;30462;52.446;-1.930;2022-12-08T02:51:18;100049.1797;;;;
44734;BME280;30462;52.446;-1.930;2022-12-08T02:53:18;100048.1719;;;;
44734;BME280;30462;52.446;-1.930;2022-12-08T02:54:18;100046.5;;;;
44734;BME280;30462;52.446;-1.930;2022-12-08T02:55:20;100043.4336;;;;
44734;BME280;30462;52.446;-1.930;2022-12-08T02:56:22;100041.625;;;;
44734;BME280;30462;52.446;-1.930;2022-12-08T02:57:21;100043.6797;;;;
44734;BME280;30462;52.446;-1.930;2022-12-08T03:00:19;100045.5547;;;;
44734;BME280;30462;52.446;-1.930;2022-12-08T03:01:22;100038.8047;;;;
44734;BME280;30462;52.446;-1.930;2022-12-08T03:03:21;100039.4883;;;;
44734;BME280;30462;52.446;-1.930;2022-12-08T03:04:20;100038.3984;;;;
44734;BME280;30462;52.446;-1.930;2022-12-08T03:05:21;100035.457;;;;
44734;BME280;30462;52.446;-1.930;2022-12-08T03:06:23;100034.5508;;;;
44734;BME280;30462;52.446;-1.930;2022-12-08T03:07:20;100032.5742;;;;
44734;BME280;30462;52.446;-1.930;2022-12-08T03:08:19;100028.0352;;;;
44734;BME280;30462;52.446;-1.930;2022-12-08T03:09:24;100028.0352;;;;
44734;BME280;30462;52.446;-1.930;2022-12-08T03:10:20;100027.2852;;;;
44734;BME280;30462;52.446;-1.930;2022-12-08T03:11:21;100028.9336;;;;
44734;BME280;30462;52.446;-1.930;2022-12-08T03:12:19;100026.5625;;;;
44734;BME280;30462;52.446;-1.930;2022-12-08T03:13:19;100027.6484;;;;
44734;BME280;30462;52.446;-1.930;2022-12-08T03:14:18;100029.6172;;;;
44734;BME280;30462;52.446;-1.930;2022-12-08T03:15:19;100025.4258;;;;
44734;BME280;30462;52.446;-1.930;2022-12-08T03:16:19;100022.2031;;;;
44734;BME280;30462;52.446;-1.930;2022-12-08T03:17:19;100022.0039;;;;
44734;BME280;30462;52.446;-1.930;2022-12-08T03:18:17;100022.6484;;;;
44734;BME280;30462;52.446;-1.930;2022-12-08T03:19:22;100022.0781;;;;
44734;BME280;30462;52.446;-1.930;2022-12-08T03:20:19;100018.9375;;;;
44734;BME280;30462;52.446;-1.930;2022-12-08T03:21:18;100017.2344;;;;
44734;BME280;30462;52.446;-1.930;2022-12-08T03:22:18;100019.2227;;;;
44734;BME280;30462;52.446;-1.930;2022-12-08T03:23:18;100018.2148;;;;
44734;BME280;30462;52.446;-1.930;2022-12-08T03:24:18;100017.8945;;;;
44734;BME280;30462;52.446;-1.930;2022-12-08T03:25:18;100018.543;;;;
44734;BME280;30462;52.446;-1.930;2022-12-08T03:26:18;100016.1016;;;;
44734;BME280;30462;52.446;-1.930;2022-12-08T03:27:18;100013.6289;;;;
44734;BME280;30462;52.446;-1.930;2022-12-08T03:28:17;100016.418;;;;
44734;BME280;30462;52.446;-1.930;2022-12-08T03:29:18;100015.6992;;;;
44734;BME280;30462;52.446;-1.930;2022-12-08T03:30:18;100012.1133;;;;
44734;BME280;30462;52.446;-1.930;2022-12-08T03:31:18;100009.7813;;;;
44734;BME280;30462;52.446;-1.930;2022-12-08T03:32:19;100009.6602;;;;
44734;BME280;30462;52.446;-1.930;2022-12-08T03:33:19;100009.1914;;;;
44734;BME280;30462;52.446;-1.930;2022-12-08T03:34:18;100012.0313;;;;
44734;BME280;30462;52.446;-1.930;2022-12-08T03:35:19;100009.3086;;;;
44734;BME280;30462;52.446;-1.930;2022-12-08T03:36:18;100010.0391;;;;
44734;BME280;30462;52.446;-1.930;2022-12-08T03:37:19;100007.9688;;;;
44734;BME280;30462;52.446;-1.930;2022-12-08T03:38:18;100008.5664;;;;
44734;BME280;30462;52.446;-1.930;2022-12-08T03:39:18;100007.8867;;;;
44734;BME280;30462;52.446;-1.930;2022-12-08T03:40:19;100007.3555;;;;
44734;BME280;30462;52.446;-1.930;2022-12-08T03:41:18;100006.4766;;;;
44734;BME280;30462;52.446;-1.930;2022-12-08T03:42:18;100005.5078;;;;
44734;BME280;30462;52.446;-1.930;2022-12-08T03:43:18;100002.957;;;;
44734;BME280;30462;52.446;-1.930;2022-12-08T03:44:18;100006.0938;;;;
44734;BME280;30462;52.446;-1.930;2022-12-08T03:45:18;100005.418;;;;
44734;BME280;30462;52.446;-1.930;2022-12-08T03:46:19;100003.1172;;;;
44734;BME280;30462;52.446;-1.930;2022-12-08T03:47:18;100005.7383;;;;
44734;BME280;30462;52.446;-1.930;2022-12-08T03:48:18;100004.0859;;;;
44734;BME280;30462;52.446;-1.930;2022-12-08T03:49:18;100003.6016;;;;
44734;BME280;30462;52.446;-1.930;2022-12-08T03:50:18;100004.8242;;;;
44734;BME280;30462;52.446;-1.930;2022-12-08T03:51:18;99999.06641;;;;
44734;BME280;30462;52.446;-1.930;2022-12-08T03:52:18;100001.9805;;;;
44734;BME280;30462;52.446;-1.930;2022-12-08T03:53:18;99997.79688;;;;
44734;BME280;30462;52.446;-1.930;2022-12-08T03:54:18;99996.73047;;;;
44734;BME280;30462;52.446;-1.930;2022-12-08T03:55:18;99992.41797;;;;
44734;BME280;30462;52.446;-1.930;2022-12-08T03:56:20;99994.17188;;;;
44734;BME280;30462;52.446;-1.930;2022-12-08T03:57:17;99988.97656;;;;
44734;BME280;30462;52.446;-1.930;2022-12-08T03:58:18;99988.94922;;;;
44734;BME280;30462;52.446;-1.930;2022-12-08T03:59:18;99988.53906;;;;
44734;BME280;30462;52.446;-1.930;2022-12-08T04:00:18;99988.55078;;;;
44734;BME280;30462;52.446;-1.930;2022-12-08T04:01:18;99989.67578;;;;
44734;BME280;30462;52.446;-1.930;2022-12-08T04:02:18;99991.08984;;;;
44734;BME280;30462;52.446;-1.930;2022-12-08T04:03:18;99987.92578;;;;
44734;BME280;30462;52.446;-1.930;2022-12-08T04:04:18;99988.69141;;;;
44734;BME280;30462;52.446;-1.930;2022-12-08T04:05:18;99989.48828;;;;
44734;BME280;30462;52.446;-1.930;2022-12-08T04:06:18;99985.77734;;;;
44734;BME280;30462;52.446;-1.930;2022-12-08T04:07:18;99987.96094;;;;
44734;BME280;30462;52.446;-1.930;2022-12-08T04:08:18;99984.48438;;;;
44734;BME280;30462;52.446;-1.930;2022-12-08T04:09:18;99982.51172;;;;
44734;BME280;30462;52.446;-1.930;2022-12-08T04:10:18;99982.78906;;;;
44734;BME280;30462;52.446;-1.930;2022-12-08T04:11:18;99983.83594;;;;
44734;BME280;30462;52.446;-1.930;2022-12-08T04:12:17;99976.95703;;;;
44734;BME280;30462;52.446;-1.930;2022-12-08T04:13:18;99978.41016;;;;
44734;BME280;30462;52.446;-1.930;2022-12-08T04:14:18;99982.34766;;;;
44734;BME280;30462;52.446;-1.930;2022-12-08T04:15:18;99982.02734;;;;
44734;BME280;30462;52.446;-1.930;2022-12-08T04:16:19;99979.64063;;;;
44734;BME280;30462;52.446;-1.930;2022-12-08T04:17:18;99982.375;;;;
44734;BME280;30462;52.446;-1.930;2022-12-08T04:18:17;99982.38672;;;;
44734;BME280;30462;52.446;-1.930;2022-12-08T04:19:18;99979.00781;;;;
44734;BME280;30462;52.446;-1.930;2022-12-08T04:20:18;99983.23438;;;;
44734;BME280;30462;52.446;-1.930;2022-12-08T04:21:18;99983.19531;;;;
44734;BME280;30462;52.446;-1.930;2022-12-08T04:22:18;99978.875;;;;
44734;BME280;30462;52.446;-1.930;2022-12-08T04:23:18;99983.74219;;;;
44734;BME280;30462;52.446;-1.930;2022-12-08T04:24:18;99981.20703;;;;
44734;BME280;30462;52.446;-1.930;2022-12-08T04:25:18;99982.35156;;;;
44734;BME280;30462;52.446;-1.930;2022-12-08T04:26:18;99980.01563;;;;
44734;BME280;30462;52.446;-1.930;2022-12-08T04:27:18;99982.80469;;;;
44734;BME280;30462;52.446;-1.930;2022-12-08T04:28:18;99980.12891;;;;
44734;BME280;30462;52.446;-1.930;2022-12-08T04:29:18;99977.06641;;;;
44734;BME280;30462;52.446;-1.930;2022-12-08T04:30:18;99978.16406;;;;
44734;BME280;30462;52.446;-1.930;2022-12-08T04:31:18;99972.88281;;;;
44734;BME280;30462;52.446;-1.930;2022-12-08T04:32:17;99970.83594;;;;
44734;BME280;30462;52.446;-1.930;2022-12-08T04:33:18;99972.65625;;;;
44734;BME280;30462;52.446;-1.930;2022-12-08T04:34:18;99970.36328;;;;
44734;BME280;30462;52.446;-1.930;2022-12-08T04:35:18;99967.81641;;;;
44734;BME280;30462;52.446;-1.930;2022-12-08T04:36:18;99968.53906;;;;
44734;BME280;30462;52.446;-1.930;2022-12-08T04:37:18;99965.96094;;;;
44734;BME280;30462;52.446;-1.930;2022-12-08T04:38:18;99964.04688;;;;
44734;BME280;30462;52.446;-1.930;2022-12-08T04:39:18;99963.71875;;;;
44734;BME280;30462;52.446;-1.930;2022-12-08T04:40:18;99958.89063;;;;
44734;BME280;30462;52.446;-1.930;2022-12-08T04:41:18;99958.15625;;;;
44734;BME280;30462;52.446;-1.930;2022-12-08T04:42:18;99958.27344;;;;
44734;BME280;30462;52.446;-1.930;2022-12-08T04:43:18;99960.32813;;;;
44734;BME280;30462;52.446;-1.930;2022-12-08T04:44:18;99961.39063;;;;
44734;BME280;30462;52.446;-1.930;2022-12-08T04:45:18;99960.90234;;;;
44734;BME280;30462;52.446;-1.930;2022-12-08T04:46:18;99957.80469;;;;
44734;BME280;30462;52.446;-1.930;2022-12-08T04:47:18;99957.52344;;;;
44734;BME280;30462;52.446;-1.930;2022-12-08T04:48:17;99956.47266;;;;
44734;BME280;30462;52.446;-1.930;2022-12-08T04:49:18;99957.00781;;;;
44734;BME280;30462;52.446;-1.930;2022-12-08T04:50:18;99958.67188;;;;
44734;BME280;30462;52.446;-1.930;2022-12-08T04:51:18;99957.77734;;;;
44734;BME280;30462;52.446;-1.930;2022-12-08T04:52:17;99957.27344;;;;
44734;BME280;30462;52.446;-1.930;2022-12-08T04:53:18;99960.91016;;;;
44734;BME280;30462;52.446;-1.930;2022-12-08T04:54:18;99963.125;;;;
44734;BME280;30462;52.446;-1.930;2022-12-08T04:55:18;99960.79297;;;;
44734;BME280;30462;52.446;-1.930;2022-12-08T04:56:18;99963.12109;;;;
44734;BME280;30462;52.446;-1.930;2022-12-08T04:57:18;99961.67188;;;;
44734;BME280;30462;52.446;-1.930;2022-12-08T04:58:18;99958.68359;;;;
44734;BME280;30462;52.446;-1.930;2022-12-08T04:59:18;99961.69922;;;;
44734;BME280;30462;52.446;-1.930;2022-12-08T05:00:18;99959.70313;;;;
44734;BME280;30462;52.446;-1.930;2022-12-08T05:01:18;99957.20313;;;;
44734;BME280;30462;52.446;-1.930;2022-12-08T05:02:18;99958.28125;;;;
44734;BME280;30462;52.446;-1.930;2022-12-08T05:03:17;99958.03516;;;;
44734;BME280;30462;52.446;-1.930;2022-12-08T05:04:18;99955.82031;;;;
44734;BME280;30462;52.446;-1.930;2022-12-08T05:05:18;99955.04297;;;;
44734;BME280;30462;52.446;-1.930;2022-12-08T05:06:18;99957.90234;;;;
44734;BME280;30462;52.446;-1.930;2022-12-08T05:07:18;99954.16016;;;;
44734;BME280;30462;52.446;-1.930;2022-12-08T05:08:18;99953.3125;;;;
44734;BME280;30462;52.446;-1.930;2022-12-08T05:09:18;99951.38281;;;;
44734;BME280;30462;52.446;-1.930;2022-12-08T05:10:18;99950.12109;;;;
44734;BME280;30462;52.446;-1.930;2022-12-08T05:11:18;99948.69922;;;;
44734;BME280;30462;52.446;-1.930;2022-12-08T05:12:18;99946.77734;;;;
44734;BME280;30462;52.446;-1.930;2022-12-08T05:13:18;99947.16797;;;;
44734;BME280;30462;52.446;-1.930;2022-12-08T05:14:18;99945.47656;;;;
44734;BME280;30462;52.446;-1.930;2022-12-08T05:15:18;99949.75;;;;
44734;BME280;30462;52.446;-1.930;2022-12-08T05:16:18;99947.0625;;;;
44734;BME280;30462;52.446;-1.930;2022-12-08T05:17:18;99946.82422;;;;
44734;BME280;30462;52.446;-1.930;2022-12-08T05:18:18;99948.88672;;;;
44734;BME280;30462;52.446;-1.930;2022-12-08T05:19:18;99948.4375;;;;
44734;BME280;30462;52.446;-1.930;2022-12-08T05:20:18;99949.28125;;;;
44734;BME280;30462;52.446;-1.930;2022-12-08T05:21:18;99950.20703;;;;
44734;BME280;30462;52.446;-1.930;2022-12-08T05:22:18;99946.18359;;;;
44734;BME280;30462;52.446;-1.930;2022-12-08T05:23:18;99945.98047;;;;
44734;BME280;30462;52.446;-1.930;2022-12-08T05:24:18;99950.16406;;;;
44734;BME280;30462;52.446;-1.930;2022-12-08T05:25:18;99946.09766;;;;
44734;BME280;30462;52.446;-1.930;2022-12-08T05:26:18;99946.98828;;;;
44734;BME280;30462;52.446;-1.930;2022-12-08T05:27:18;99943.92969;;;;
44734;BME280;30462;52.446;-1.930;2022-12-08T05:28:17;99941.73047;;;;
44734;BME280;30462;52.446;-1.930;2022-12-08T05:29:18;99940.20313;;;;
44734;BME280;30462;52.446;-1.930;2022-12-08T05:30:18;99937.37109;;;;
44734;BME280;30462;52.446;-1.930;2022-12-08T05:31:18;99937.71875;;;;
44734;BME280;30462;52.446;-1.930;2022-12-08T05:32:18;99937.72266;;;;
44734;BME280;30462;52.446;-1.930;2022-12-08T05:33:18;99936.35547;;;;
44734;BME280;30462;52.446;-1.930;2022-12-08T05:34:18;99938.94141;;;;
44734;BME280;30462;52.446;-1.930;2022-12-08T05:35:18;99933.06641;;;;
44734;BME280;30462;52.446;-1.930;2022-12-08T05:36:18;99940.62109;;;;
44734;BME280;30462;52.446;-1.930;2022-12-08T05:37:18;99936.88281;;;;
44734;BME280;30462;52.446;-1.930;2022-12-08T05:38:18;99937.97656;;;;
44734;BME280;30462;52.446;-1.930;2022-12-08T05:39:18;99938.46094;;;;
44734;BME280;30462;52.446;-1.930;2022-12-08T05:40:18;99935.65625;;;;
44734;BME280;30462;52.446;-1.930;2022-12-08T05:41:19;99943.54688;;;;
44734;BME280;30462;52.446;-1.930;2022-12-08T05:42:18;99941.73828;;;;
44734;BME280;30462;52.446;-1.930;2022-12-08T05:43:18;99941.13281;;;;
44734;BME280;30462;52.446;-1.930;2022-12-08T05:44:18;99940.98047;;;;
44734;BME280;30462;52.446;-1.930;2022-12-08T05:45:18;99940.71875;;;;
44734;BME280;30462;52.446;-1.930;2022-12-08T05:46:17;99936.57813;;;;
44734;BME280;30462;52.446;-1.930;2022-12-08T05:47:17;99939.49609;;;;
44734;BME280;30462;52.446;-1.930;2022-12-08T05:48:18;99934.39063;;;;
44734;BME280;30462;52.446;-1.930;2022-12-08T05:49:17;99929.24219;;;;
44734;BME280;30462;52.446;-1.930;2022-12-08T05:50:18;99928.55859;;;;
44734;BME280;30462;52.446;-1.930;2022-12-08T05:51:19;99926.91016;;;;
44734;BME280;30462;52.446;-1.930;2022-12-08T05:52:18;99926.30469;;;;
44734;BME280;30462;52.446;-1.930;2022-12-08T05:53:18;99919.01172;;;;
44734;BME280;30462;52.446;-1.930;2022-12-08T05:54:18;99919.73828;;;;
44734;BME280;30462;52.446;-1.930;2022-12-08T05:55:18;99922.30859;;;;
44734;BME280;30462;52.446;-1.930;2022-12-08T05:56:18;99917.10547;;;;
44734;BME280;30462;52.446;-1.930;2022-12-08T05:57:18;99916.4375;;;;